createdAt,value
2022-12-09T00:00:08.165Z,1.70
2022-12-09T00:02:35.566Z,1.80
2022-12-09T00:05:02.655Z,1.90
2022-12-09T00:07:29.567Z,1.90
2022-12-09T00:09:56.558Z,1.90
2022-12-09T00:12:23.388Z,1.80
2022-12-09T00:14:50.359Z,1.60
2022-12-09T00:17:17.437Z,1.50
2022-12-09T00:19:44.351Z,1.50
2022-12-09T00:22:11.373Z,1.60
2022-12-09T00:24:38.233Z,1.60
2022-12-09T00:27:05.339Z,1.70
2022-12-09T00:29:32.166Z,1.80
2022-12-09T00:31:59.023Z,1.80
2022-12-09T00:34:26.031Z,1.70
2022-12-09T00:36:52.919Z,1.60
2022-12-09T00:39:19.702Z,1.50
2022-12-09T00:41:46.592Z,1.60
2022-12-09T00:44:13.368Z,1.70
2022-12-09T00:46:40.429Z,1.70
2022-12-09T00:49:07.462Z,1.50
2022-12-09T00:51:34.506Z,1.50
2022-12-09T00:54:01.590Z,1.60
2022-12-09T00:56:30.108Z,1.70
2022-12-09T00:58:58.241Z,1.80
2022-12-09T01:01:25.261Z,1.80
2022-12-09T01:03:52.283Z,1.50
2022-12-09T01:06:23.160Z,1.50
2022-12-09T01:08:50.399Z,1.60
2022-12-09T01:11:20.451Z,1.70
2022-12-09T01:13:48.893Z,1.70
2022-12-09T01:16:21.724Z,1.70
2022-12-09T01:18:49.945Z,1.70
2022-12-09T01:21:17.228Z,1.70
2022-12-09T01:23:44.291Z,1.70
2022-12-09T01:26:11.376Z,1.70
2022-12-09T01:28:39.701Z,1.70
2022-12-09T01:31:18.633Z,1.70
2022-12-09T01:33:45.605Z,1.70
2022-12-09T01:36:16.362Z,1.60
2022-12-09T01:38:44.328Z,1.60
2022-12-09T01:41:11.380Z,1.40
2022-12-09T01:43:39.887Z,1.30
2022-12-09T01:46:07.671Z,1.40
2022-12-09T01:48:42.948Z,1.30
2022-12-09T01:51:20.238Z,1.30
2022-12-09T01:53:50.770Z,1.30
2022-12-09T01:56:32.103Z,1.30
2022-12-09T01:59:03.098Z,1.30
2022-12-09T02:01:30.048Z,1.20
2022-12-09T02:03:57.143Z,1.10
2022-12-09T02:06:24.462Z,1.10
2022-12-09T02:08:51.950Z,1.20
2022-12-09T02:11:22.303Z,1.30
2022-12-09T02:14:19.398Z,1.30
2022-12-09T02:17:10.021Z,1.30
2022-12-09T02:20:01.721Z,1.30
2022-12-09T02:22:43.431Z,1.20
2022-12-09T02:25:28.550Z,1.20
2022-12-09T02:28:26.499Z,1.30
2022-12-09T02:31:21.588Z,1.30
2022-12-09T02:34:12.868Z,1.10
2022-12-09T02:36:51.915Z,1.00
2022-12-09T02:39:23.756Z,1.00
2022-12-09T02:41:53.487Z,1.00
2022-12-09T02:44:23.194Z,1.10
2022-12-09T02:46:50.652Z,1.20
2022-12-09T02:49:21.437Z,1.30
2022-12-09T02:51:50.482Z,1.30
2022-12-09T02:54:19.050Z,1.40
2022-12-09T02:56:53.530Z,1.40
2022-12-09T02:59:20.752Z,1.40
2022-12-09T03:02:06.532Z,1.20
2022-12-09T03:04:33.849Z,1.00
2022-12-09T03:07:28.538Z,1.10
2022-12-09T03:10:07.853Z,1.20
2022-12-09T03:12:37.770Z,1.20
2022-12-09T03:15:07.502Z,1.10
2022-12-09T03:17:37.805Z,1.10
2022-12-09T03:20:25.064Z,1.20
2022-12-09T03:22:56.514Z,1.10
2022-12-09T03:25:38.559Z,1.10
2022-12-09T03:28:07.428Z,1.00
2022-12-09T03:30:39.287Z,1.10
2022-12-09T03:33:07.193Z,1.20
2022-12-09T03:35:42.594Z,1.20
2022-12-09T03:38:13.360Z,1.30
2022-12-09T03:40:41.992Z,1.30
2022-12-09T03:43:23.256Z,1.20
2022-12-09T03:45:54.635Z,1.20
2022-12-09T03:48:22.283Z,1.30
2022-12-09T03:51:05.081Z,1.30
2022-12-09T03:53:49.240Z,1.20
2022-12-09T03:56:43.712Z,1.20
2022-12-09T03:59:13.165Z,1.30
2022-12-09T04:01:45.335Z,1.30
2022-12-09T04:04:13.001Z,1.30
2022-12-09T04:06:40.031Z,1.30
2022-12-09T04:09:07.001Z,1.30
2022-12-09T04:11:35.015Z,1.40
2022-12-09T04:14:02.476Z,1.40
2022-12-09T04:16:29.480Z,1.40
2022-12-09T04:18:56.901Z,1.40
2022-12-09T04:21:24.025Z,1.50
2022-12-09T04:23:50.949Z,1.50
2022-12-09T04:26:21.868Z,1.40
2022-12-09T04:28:49.462Z,1.30
2022-12-09T04:31:18.204Z,1.40
2022-12-09T04:33:45.944Z,1.50
2022-12-09T04:36:16.161Z,1.40
2022-12-09T04:38:43.605Z,1.30
2022-12-09T04:41:10.559Z,1.40
2022-12-09T04:43:37.728Z,1.30
2022-12-09T04:46:07.313Z,1.30
2022-12-09T04:48:34.315Z,1.10
2022-12-09T04:51:01.375Z,1.10
2022-12-09T04:53:28.560Z,1.20
2022-12-09T04:56:07.850Z,1.20
2022-12-09T04:58:34.912Z,1.20
2022-12-09T05:01:26.582Z,1.20
2022-12-09T05:03:55.539Z,1.10
2022-12-09T05:06:23.075Z,1.00
2022-12-09T05:08:51.264Z,1.00
2022-12-09T05:11:20.561Z,1.00
2022-12-09T05:13:47.971Z,1.00
2022-12-09T05:16:17.721Z,1.00
2022-12-09T05:18:46.614Z,0.90
2022-12-09T05:21:18.819Z,1.00
2022-12-09T05:23:46.578Z,1.10
2022-12-09T05:26:16.916Z,1.10
2022-12-09T05:28:44.389Z,1.10
2022-12-09T05:31:15.533Z,1.10
2022-12-09T05:33:43.431Z,1.30
2022-12-09T05:36:15.075Z,1.30
2022-12-09T05:38:42.441Z,1.40
2022-12-09T05:41:09.631Z,1.40
2022-12-09T05:43:37.128Z,1.50
2022-12-09T05:46:05.695Z,1.50
2022-12-09T05:48:33.544Z,1.50
2022-12-09T05:51:03.626Z,1.40
2022-12-09T05:53:31.518Z,1.40
2022-12-09T05:55:58.495Z,1.40
2022-12-09T05:58:25.858Z,1.50
2022-12-09T06:00:56.634Z,1.50
2022-12-09T06:03:24.698Z,1.50
2022-12-09T06:05:52.374Z,1.50
2022-12-09T06:08:19.741Z,1.30
2022-12-09T06:10:47.363Z,1.40
2022-12-09T06:13:14.716Z,1.40
2022-12-09T06:15:41.834Z,1.40
2022-12-09T06:18:09.031Z,1.30
2022-12-09T06:20:40.492Z,1.40
2022-12-09T06:23:07.907Z,1.40
2022-12-09T06:25:35.615Z,1.40
2022-12-09T06:28:02.819Z,1.30
2022-12-09T06:30:29.743Z,1.30
2022-12-09T06:32:56.983Z,1.30
2022-12-09T06:35:24.315Z,1.20
2022-12-09T06:37:53.481Z,1.10
2022-12-09T06:40:23.651Z,0.90
2022-12-09T06:42:51.930Z,0.80
2022-12-09T06:45:19.995Z,0.90
2022-12-09T06:47:47.801Z,1.00
2022-12-09T06:50:16.186Z,1.00
2022-12-09T06:52:43.518Z,1.00
2022-12-09T06:55:11.340Z,1.20
2022-12-09T06:57:38.885Z,1.20
2022-12-09T07:00:06.630Z,1.20
2022-12-09T07:02:36.815Z,1.30
2022-12-09T07:05:05.492Z,1.30
2022-12-09T07:07:33.125Z,1.30
2022-12-09T07:10:07.711Z,1.40
2022-12-09T07:12:34.759Z,1.40
2022-12-09T07:15:02.009Z,1.50
2022-12-09T07:17:29.038Z,1.40
2022-12-09T07:20:00.142Z,1.30
2022-12-09T07:22:30.244Z,1.40
2022-12-09T07:24:57.307Z,1.40
2022-12-09T07:27:24.521Z,1.40
2022-12-09T07:29:51.738Z,1.50
2022-12-09T07:32:18.647Z,1.50
2022-12-09T07:34:45.861Z,1.50
2022-12-09T07:37:13.918Z,1.60
2022-12-09T07:39:40.758Z,1.60
2022-12-09T07:42:07.685Z,1.70
2022-12-09T07:44:34.516Z,1.70
2022-12-09T07:47:01.398Z,1.70
2022-12-09T07:49:28.993Z,1.60
2022-12-09T07:51:56.083Z,1.70
2022-12-09T07:54:23.203Z,1.70
2022-12-09T07:56:50.176Z,1.80
2022-12-09T07:59:17.682Z,1.80
2022-12-09T08:01:45.356Z,1.90
2022-12-09T08:04:15.376Z,1.80
2022-12-09T08:06:42.734Z,1.80
2022-12-09T08:09:12.772Z,1.80
2022-12-09T08:11:40.966Z,1.80
2022-12-09T08:14:24.595Z,1.80
2022-12-09T08:16:51.673Z,1.70
2022-12-09T08:19:18.749Z,1.80
2022-12-09T08:21:50.982Z,1.90
2022-12-09T08:24:21.958Z,1.80
2022-12-09T08:26:51.321Z,1.70
2022-12-09T08:29:18.531Z,1.80
2022-12-09T08:31:45.712Z,1.80
2022-12-09T08:34:14.434Z,1.70
2022-12-09T08:36:42.493Z,1.80
2022-12-09T08:39:10.914Z,1.80
2022-12-09T08:41:39.406Z,1.80
2022-12-09T08:44:18.170Z,1.80
2022-12-09T08:46:48.410Z,1.70
2022-12-09T08:49:19.168Z,1.60
2022-12-09T08:51:47.555Z,1.60
2022-12-09T08:54:14.651Z,1.70
2022-12-09T08:56:48.506Z,1.70
2022-12-09T08:59:16.236Z,1.80
2022-12-09T09:01:43.433Z,1.90
2022-12-09T09:04:14.614Z,2.00
2022-12-09T09:06:45.084Z,2.10
2022-12-09T09:09:14.314Z,2.20
2022-12-09T09:11:42.241Z,2.20
2022-12-09T09:14:11.020Z,2.20
2022-12-09T09:16:40.842Z,2.30
2022-12-09T09:19:08.828Z,2.40
2022-12-09T09:21:36.386Z,2.30
2022-12-09T09:24:08.958Z,2.40
2022-12-09T09:26:40.138Z,2.30
2022-12-09T09:29:07.301Z,2.20
2022-12-09T09:31:35.078Z,2.20
2022-12-09T09:34:02.257Z,2.30
2022-12-09T09:36:29.664Z,2.50
2022-12-09T09:38:58.166Z,2.50
2022-12-09T09:41:30.803Z,2.50
2022-12-09T09:43:58.249Z,2.50
2022-12-09T09:46:42.533Z,2.50
2022-12-09T09:49:18.944Z,2.40
2022-12-09T09:51:47.003Z,2.30
2022-12-09T09:54:16.706Z,2.20
2022-12-09T09:56:55.286Z,2.30
2022-12-09T09:59:46.231Z,2.20
2022-12-09T10:02:18.214Z,2.10
2022-12-09T10:05:03.285Z,2.20
2022-12-09T10:07:43.673Z,2.10
2022-12-09T10:10:20.458Z,2.30
2022-12-09T10:13:08.358Z,2.40
2022-12-09T10:15:54.796Z,2.50
2022-12-09T10:18:26.008Z,2.50
2022-12-09T10:20:53.895Z,2.50
2022-12-09T10:23:22.535Z,2.60
2022-12-09T10:25:55.010Z,2.60
2022-12-09T10:28:32.605Z,2.50
2022-12-09T10:30:59.915Z,2.50
2022-12-09T10:33:35.609Z,2.40
2022-12-09T10:36:04.222Z,2.40
2022-12-09T10:38:32.515Z,2.50
2022-12-09T10:41:12.515Z,2.60
2022-12-09T10:43:44.206Z,2.50
2022-12-09T10:46:19.487Z,2.50
2022-12-09T10:48:47.558Z,2.50
2022-12-09T10:51:27.028Z,2.60
2022-12-09T10:54:01.182Z,2.60
2022-12-09T10:56:34.280Z,2.60
2022-12-09T10:59:24.882Z,2.60
2022-12-09T11:01:56.719Z,2.70
2022-12-09T11:04:25.222Z,2.70
2022-12-09T11:06:59.337Z,2.70
2022-12-09T11:09:39.843Z,2.80
2022-12-09T11:12:20.557Z,2.80
2022-12-09T11:14:57.694Z,2.80
2022-12-09T11:17:27.499Z,2.80
2022-12-09T11:20:14.370Z,2.80
2022-12-09T11:22:43.310Z,2.80
2022-12-09T11:25:15.759Z,2.80
2022-12-09T11:27:50.798Z,2.80
2022-12-09T11:30:29.320Z,2.80
2022-12-09T11:33:07.923Z,2.80
2022-12-09T11:35:34.928Z,2.80
2022-12-09T11:38:16.889Z,2.80
2022-12-09T11:40:56.509Z,2.80
2022-12-09T11:43:39.356Z,2.80
2022-12-09T11:46:24.573Z,2.80
2022-12-09T11:48:56.768Z,2.80
2022-12-09T11:51:31.261Z,2.90
2022-12-09T11:54:10.395Z,2.80
2022-12-09T11:56:38.768Z,2.80
2022-12-09T11:59:13.379Z,2.80
2022-12-09T12:01:42.983Z,2.90
2022-12-09T12:04:13.246Z,2.90
2022-12-09T12:06:52.209Z,2.90
2022-12-09T12:09:25.205Z,3.00
2022-12-09T12:12:19.382Z,3.00
2022-12-09T12:14:47.138Z,3.00
2022-12-09T12:17:23.754Z,2.90
2022-12-09T12:19:56.390Z,2.90
2022-12-09T12:22:56.571Z,2.90
2022-12-09T12:25:27.570Z,2.90
2022-12-09T12:28:09.398Z,2.90
2022-12-09T12:30:59.880Z,3.00
2022-12-09T12:34:25.275Z,3.00
2022-12-09T12:37:24.012Z,3.00
2022-12-09T12:40:27.168Z,3.00
2022-12-09T12:43:24.536Z,3.00
2022-12-09T12:46:23.113Z,3.00
2022-12-09T12:49:28.079Z,3.00
2022-12-09T12:52:54.826Z,3.00
2022-12-09T12:55:19.155Z,3.10
2022-12-09T12:58:06.126Z,3.10
2022-12-09T13:00:55.223Z,3.10
2022-12-09T13:03:33.666Z,3.10
2022-12-09T13:06:01.881Z,3.10
2022-12-09T13:08:37.328Z,3.00
2022-12-09T13:11:37.815Z,2.90
2022-12-09T13:14:10.365Z,3.00
2022-12-09T13:16:41.441Z,3.10
2022-12-09T13:19:23.029Z,3.10
2022-12-09T13:21:50.488Z,3.20
2022-12-09T13:24:32.681Z,3.20
2022-12-09T13:27:29.712Z,3.20
2022-12-09T13:30:03.052Z,3.10
2022-12-09T13:32:44.856Z,3.10
2022-12-09T13:36:09.776Z,3.10
2022-12-09T13:38:42.526Z,3.10
2022-12-09T13:41:30.665Z,3.00
2022-12-09T13:44:17.707Z,3.00
2022-12-09T13:46:45.055Z,3.00
2022-12-09T13:49:21.405Z,3.00
2022-12-09T13:51:51.705Z,3.10
2022-12-09T13:54:24.588Z,3.10
2022-12-09T13:57:21.275Z,3.10
2022-12-09T13:59:53.201Z,3.10
2022-12-09T14:02:28.792Z,3.10
2022-12-09T14:05:14.302Z,3.00
2022-12-09T14:07:50.256Z,3.00
2022-12-09T14:10:37.349Z,3.00
2022-12-09T14:13:24.158Z,2.80
2022-12-09T14:16:16.371Z,2.80
2022-12-09T14:18:44.586Z,3.00
2022-12-09T14:21:22.042Z,3.00
2022-12-09T14:24:07.291Z,3.00
2022-12-09T14:26:36.078Z,3.00
2022-12-09T14:29:04.024Z,3.00
2022-12-09T14:31:57.941Z,3.10
2022-12-09T14:34:35.109Z,3.00
2022-12-09T14:37:30.301Z,3.00
2022-12-09T14:40:05.585Z,3.00
2022-12-09T14:43:09.514Z,2.90
2022-12-09T14:45:54.579Z,2.90
2022-12-09T14:48:29.322Z,2.90
2022-12-09T14:51:15.746Z,2.90
2022-12-09T14:53:43.517Z,2.90
2022-12-09T14:56:17.893Z,2.90
2022-12-09T14:58:50.491Z,2.90
2022-12-09T15:01:18.534Z,3.00
2022-12-09T15:03:57.767Z,3.00
2022-12-09T15:06:28.407Z,3.00
2022-12-09T15:08:57.227Z,3.00
2022-12-09T15:11:29.147Z,2.80
2022-12-09T15:14:18.119Z,2.90
2022-12-09T15:16:49.291Z,2.90
2022-12-09T15:19:51.276Z,2.90
2022-12-09T15:22:18.539Z,2.90
2022-12-09T15:24:50.444Z,2.90
2022-12-09T15:27:20.242Z,2.90
2022-12-09T15:29:47.400Z,3.00
2022-12-09T15:32:23.964Z,3.00
2022-12-09T15:34:50.904Z,3.00
2022-12-09T15:37:22.032Z,3.00
2022-12-09T15:39:55.460Z,2.90
2022-12-09T15:42:27.299Z,2.90
2022-12-09T15:45:06.728Z,2.90
2022-12-09T15:47:48.970Z,2.80
2022-12-09T15:50:24.343Z,2.90
2022-12-09T15:53:05.181Z,2.90
2022-12-09T15:56:05.907Z,2.90
2022-12-09T15:58:38.706Z,2.90
2022-12-09T16:01:05.767Z,2.90
2022-12-09T16:03:34.920Z,2.90
2022-12-09T16:06:06.321Z,2.90
2022-12-09T16:08:37.241Z,2.90
2022-12-09T16:11:04.889Z,2.90
2022-12-09T16:13:32.138Z,2.80
2022-12-09T16:16:01.525Z,2.80
2022-12-09T16:18:32.972Z,2.80
2022-12-09T16:21:03.862Z,2.80
2022-12-09T16:23:30.839Z,2.80
2022-12-09T16:26:06.602Z,2.80
2022-12-09T16:28:34.394Z,2.80
2022-12-09T16:31:04.015Z,2.70
2022-12-09T16:33:40.049Z,2.70
2022-12-09T16:36:07.642Z,2.80
2022-12-09T16:38:36.659Z,2.90
2022-12-09T16:41:07.383Z,2.90
2022-12-09T16:43:35.218Z,2.90
2022-12-09T16:46:27.916Z,2.90
2022-12-09T16:48:54.696Z,2.80
2022-12-09T16:51:24.985Z,2.80
2022-12-09T16:53:53.672Z,2.90
2022-12-09T16:56:23.667Z,2.80
2022-12-09T16:58:51.215Z,2.90
2022-12-09T17:01:20.046Z,2.80
2022-12-09T17:03:52.109Z,2.90
2022-12-09T17:06:20.567Z,2.80
2022-12-09T17:08:47.490Z,2.70
2022-12-09T17:11:14.749Z,2.70
2022-12-09T17:13:41.566Z,2.60
2022-12-09T17:16:09.076Z,2.70
2022-12-09T17:18:35.995Z,2.70
2022-12-09T17:21:07.894Z,2.80
2022-12-09T17:24:16.591Z,2.80
2022-12-09T18:12:48.192Z,2.50
2022-12-09T18:15:15.068Z,2.40
2022-12-09T18:18:19.145Z,2.30
2022-12-09T18:21:00.710Z,2.40
2022-12-09T18:23:49.811Z,2.40
2022-12-09T18:29:58.141Z,2.40
2022-12-09T18:32:25.015Z,2.30
2022-12-09T18:34:51.787Z,2.40
2022-12-09T18:45:05.625Z,2.40
2022-12-09T18:47:32.397Z,2.40
2022-12-09T18:53:41.225Z,2.40
2022-12-09T18:56:08.319Z,2.30
2022-12-09T18:59:04.148Z,2.20
2022-12-09T19:01:25.885Z,2.30
2022-12-09T19:03:54.374Z,2.30
2022-12-09T19:06:30.289Z,2.20
2022-12-09T19:08:59.915Z,1.90
2022-12-09T19:11:29.327Z,1.90
2022-12-09T19:13:57.260Z,2.00
2022-12-09T19:16:44.479Z,1.90
2022-12-09T19:19:15.409Z,1.90
2022-12-09T19:21:42.683Z,2.00
2022-12-09T19:27:57.976Z,1.90
2022-12-09T19:30:24.719Z,2.10
2022-12-09T19:32:53.223Z,2.10
2022-12-09T19:35:20.400Z,2.00
2022-12-09T19:37:47.300Z,2.10
2022-12-09T19:40:14.121Z,2.10
2022-12-09T21:42:30.464Z,1.10
2022-12-09T21:49:20.938Z,1.30
2022-12-09T22:42:09.130Z,1.40
2022-12-09T22:52:12.230Z,1.40
2022-12-09T23:02:41.276Z,1.60
2022-12-09T23:16:32.652Z,1.80
2022-12-09T23:18:59.690Z,1.70
2022-12-09T23:21:31.989Z,1.70
2022-12-09T23:24:05.699Z,1.80
2022-12-09T23:30:20.560Z,1.90
2022-12-09T23:36:32.919Z,1.70
2022-12-09T23:39:01.159Z,1.90
2022-12-09T23:41:28.798Z,2.00
2022-12-09T23:43:55.760Z,2.00
2022-12-09T23:46:25.343Z,2.00
2022-12-09T23:49:18.250Z,2.00
2022-12-09T23:55:25.562Z,1.90
2022-12-09T23:58:11.960Z,2.00
